Time;durP1;ratioP1;P1;durP2;ratioP2;P2;SDS_P1;SDS_P2;PMS_P1;PMS_P2;Temp;Humidity;BMP_temperature;BMP_pressure;BME280_temperature;BME280_humidity;BME280_pressure;Samples;Min_cycle;Max_cycle;Signal;HPM_P1;HPM_P2
2021/12/26 00:01:43;;;;;;;14.80;4.78;;;;;;;;;;5009898;28;20108;-82
2021/12/26 00:04:13;;;;;;;16.27;4.15;;;;;;;;;;4993948;28;20129;-81
2021/12/26 00:06:44;;;;;;;14.63;4.75;;;;;;;;;;4990679;28;20042;-82
2021/12/26 00:09:11;;;;;;;12.43;4.60;;;;;;;;;;4975624;28;20109;-80
2021/12/26 00:11:38;;;;;;;13.77;4.75;;;;;;;;;;4991875;28;20132;-81
2021/12/26 00:14:06;;;;;;;8.90;4.50;;;;;;;;;;5012952;28;20124;-81
2021/12/26 00:16:34;;;;;;;17.80;5.57;;;;;;;;;;4995709;28;20048;-81
2021/12/26 00:19:03;;;;;;;12.43;4.75;;;;;;;;;;4994837;28;20549;-80
2021/12/26 00:21:32;;;;;;;8.38;3.72;;;;;;;;;;4996167;28;20424;-81
2021/12/26 00:24:00;;;;;;;14.30;5.90;;;;;;;;;;5013380;28;20502;-80
2021/12/26 00:26:37;;;;;;;20.63;5.60;;;;;;;;;;5013363;28;20072;-80
2021/12/26 00:29:05;;;;;;;18.85;5.00;;;;;;;;;;4988326;28;20448;-80
2021/12/26 00:31:32;;;;;;;17.33;4.80;;;;;;;;;;4993657;28;20054;-81
2021/12/26 00:34:00;;;;;;;11.82;4.78;;;;;;;;;;4979806;28;20086;-81
2021/12/26 00:36:27;;;;;;;11.50;4.93;;;;;;;;;;5009412;28;20082;-80
2021/12/26 00:38:54;;;;;;;12.57;4.43;;;;;;;;;;4994714;28;20073;-80
2021/12/26 00:41:22;;;;;;;9.98;3.95;;;;;;;;;;5007082;28;20133;-80
2021/12/26 00:43:49;;;;;;;10.60;3.95;;;;;;;;;;4993492;28;20090;-80
2021/12/26 00:46:16;;;;;;;16.58;4.53;;;;;;;;;;5011855;28;20555;-80
2021/12/26 00:48:43;;;;;;;7.82;3.88;;;;;;;;;;4995133;28;20128;-80
2021/12/26 00:51:11;;;;;;;17.40;5.43;;;;;;;;;;4993755;28;20092;-80
2021/12/26 00:53:38;;;;;;;16.17;5.10;;;;;;;;;;5011814;28;20082;-80
2021/12/26 00:56:05;;;;;;;11.45;4.18;;;;;;;;;;4995205;28;20045;-80
2021/12/26 00:58:38;;;;;;;10.55;4.13;;;;;;;;;;5012092;28;20474;-80
2021/12/26 01:01:05;;;;;;;13.25;3.88;;;;;;;;;;5012293;28;20682;-79
2021/12/26 01:03:33;;;;;;;7.28;3.65;;;;;;;;;;5012975;28;20049;-79
2021/12/26 01:06:00;;;;;;;11.20;4.53;;;;;;;;;;5005862;28;20059;-78
2021/12/26 01:08:31;;;;;;;9.43;4.07;;;;;;;;;;4994558;28;20137;-78
2021/12/26 01:11:06;;;;;;;9.15;4.40;;;;;;;;;;4984815;28;20070;-78
2021/12/26 01:13:37;;;;;;;16.05;3.65;;;;;;;;;;4988151;28;20080;-78
2021/12/26 01:16:09;;;;;;;16.70;4.80;;;;;;;;;;5015255;28;20133;-78
2021/12/26 01:18:38;;;;;;;8.85;3.75;;;;;;;;;;5006209;28;20096;-78
2021/12/26 01:21:17;;;;;;;12.02;4.10;;;;;;;;;;5007749;28;20125;-78
2021/12/26 01:23:46;;;;;;;11.02;4.25;;;;;;;;;;5006897;28;20078;-78
2021/12/26 01:26:15;;;;;;;9.35;3.58;;;;;;;;;;5009982;28;20050;-77
2021/12/26 01:28:43;;;;;;;11.15;3.90;;;;;;;;;;4999367;28;20119;-78
2021/12/26 01:31:10;;;;;;;15.55;4.28;;;;;;;;;;4989369;28;20049;-78
2021/12/26 01:33:38;;;;;;;19.90;4.05;;;;;;;;;;4993111;28;20709;-78
2021/12/26 01:36:05;;;;;;;16.42;4.15;;;;;;;;;;4992107;28;20089;-78
2021/12/26 01:38:33;;;;;;;17.85;4.32;;;;;;;;;;4989160;28;20052;-79
2021/12/26 01:41:08;;;;;;;11.05;3.50;;;;;;;;;;4986860;28;20104;-78
2021/12/26 01:43:35;;;;;;;11.43;3.75;;;;;;;;;;4975311;28;20146;-78
2021/12/26 01:46:03;;;;;;;18.13;4.60;;;;;;;;;;5006074;28;20046;-78
2021/12/26 01:48:31;;;;;;;11.50;3.38;;;;;;;;;;4987737;28;20108;-78
2021/12/26 01:50:58;;;;;;;10.85;3.47;;;;;;;;;;4989282;28;20141;-78
2021/12/26 01:53:26;;;;;;;14.05;3.78;;;;;;;;;;4990895;28;20140;-78
2021/12/26 01:55:55;;;;;;;13.77;4.38;;;;;;;;;;4988843;28;20539;-78
2021/12/26 01:58:25;;;;;;;10.00;3.38;;;;;;;;;;5008460;28;20053;-78
2021/12/26 02:01:13;;;;;;;9.40;3.08;;;;;;;;;;5001772;28;20459;-78
2021/12/26 02:03:41;;;;;;;9.27;3.67;;;;;;;;;;4991535;28;20062;-78
2021/12/26 02:08:43;;;;;;;15.02;4.05;;;;;;;;;;5009253;28;20061;-80
2021/12/26 02:11:10;;;;;;;17.45;4.15;;;;;;;;;;5003750;28;20077;-80
2021/12/26 02:13:38;;;;;;;11.48;4.18;;;;;;;;;;5012137;28;20133;-80
2021/12/26 02:16:06;;;;;;;13.73;4.28;;;;;;;;;;5005641;28;20070;-80
2021/12/26 02:18:33;;;;;;;10.15;4.28;;;;;;;;;;4994359;28;20053;-80
2021/12/26 02:21:16;;;;;;;9.02;3.72;;;;;;;;;;5011736;28;20124;-80
2021/12/26 02:24:02;;;;;;;10.10;4.43;;;;;;;;;;4987749;28;20140;-80
2021/12/26 02:29:15;;;;;;;12.65;4.45;;;;;;;;;;5019604;28;20073;-80
2021/12/26 02:31:42;;;;;;;7.25;3.20;;;;;;;;;;5018033;28;20129;-80
2021/12/26 02:34:10;;;;;;;14.30;3.40;;;;;;;;;;5010562;28;20829;-80
2021/12/26 02:36:39;;;;;;;15.35;3.83;;;;;;;;;;4997945;28;20054;-80
2021/12/26 02:39:06;;;;;;;13.02;3.60;;;;;;;;;;5012110;28;20137;-80
2021/12/26 02:41:33;;;;;;;12.45;3.67;;;;;;;;;;4985108;28;20070;-80
2021/12/26 02:44:00;;;;;;;10.73;3.38;;;;;;;;;;5012116;28;20046;-80
2021/12/26 02:46:32;;;;;;;13.20;3.55;;;;;;;;;;5010556;28;20049;-80
2021/12/26 02:48:59;;;;;;;9.52;3.78;;;;;;;;;;4996386;28;20134;-80
2021/12/26 02:51:27;;;;;;;14.77;3.60;;;;;;;;;;4997549;28;20077;-81
2021/12/26 02:53:54;;;;;;;13.18;3.25;;;;;;;;;;5005700;28;20072;-80
2021/12/26 02:56:21;;;;;;;10.95;3.50;;;;;;;;;;4991795;28;20460;-80
2021/12/26 02:58:48;;;;;;;6.75;3.67;;;;;;;;;;4989993;28;20073;-80
2021/12/26 03:01:20;;;;;;;10.23;3.70;;;;;;;;;;4992117;28;20481;-81
2021/12/26 03:03:47;;;;;;;7.35;2.92;;;;;;;;;;5006802;28;20479;-80
2021/12/26 03:09:01;;;;;;;7.25;3.60;;;;;;;;;;5014562;28;20157;-80
2021/12/26 03:11:28;;;;;;;7.25;4.18;;;;;;;;;;4996360;28;20137;-80
2021/12/26 03:13:55;;;;;;;10.82;3.80;;;;;;;;;;4990576;28;20376;-80
2021/12/26 03:16:26;;;;;;;10.48;3.40;;;;;;;;;;4990225;28;20140;-80
2021/12/26 03:18:57;;;;;;;6.70;3.40;;;;;;;;;;4990629;28;20121;-80
2021/12/26 03:21:24;;;;;;;8.43;3.33;;;;;;;;;;4995727;28;20148;-80
2021/12/26 03:23:51;;;;;;;7.30;3.65;;;;;;;;;;5011224;28;20137;-80
2021/12/26 03:26:19;;;;;;;8.95;3.80;;;;;;;;;;5008726;28;20220;-80
2021/12/26 03:28:46;;;;;;;13.18;3.50;;;;;;;;;;5014093;28;20454;-80
2021/12/26 03:31:13;;;;;;;18.98;3.90;;;;;;;;;;5013552;28;20081;-80
2021/12/26 03:33:41;;;;;;;9.40;3.38;;;;;;;;;;5013943;28;20395;-80
2021/12/26 03:36:08;;;;;;;7.32;3.50;;;;;;;;;;4996015;28;20058;-78
2021/12/26 03:38:36;;;;;;;6.97;3.28;;;;;;;;;;5000631;28;20648;-79
2021/12/26 03:41:04;;;;;;;10.98;3.63;;;;;;;;;;4985885;28;20100;-78
2021/12/26 03:43:31;;;;;;;8.57;3.33;;;;;;;;;;5005775;28;20050;-78
2021/12/26 03:45:59;;;;;;;11.30;3.58;;;;;;;;;;5006793;28;20734;-78
2021/12/26 03:48:26;;;;;;;21.58;3.92;;;;;;;;;;4990835;28;20065;-78
2021/12/26 03:50:54;;;;;;;11.02;3.10;;;;;;;;;;4982572;28;20081;-78
2021/12/26 03:53:22;;;;;;;6.18;3.25;;;;;;;;;;4991398;28;20061;-78
2021/12/26 03:55:50;;;;;;;7.30;3.15;;;;;;;;;;4988767;28;20085;-79
2021/12/26 03:58:17;;;;;;;16.95;3.42;;;;;;;;;;4993682;28;20069;-79
2021/12/26 04:00:45;;;;;;;12.85;3.53;;;;;;;;;;4988407;28;20050;-78
2021/12/26 04:03:12;;;;;;;9.25;3.10;;;;;;;;;;4986510;28;20108;-79
2021/12/26 04:05:39;;;;;;;11.48;3.08;;;;;;;;;;4989286;28;20125;-78
2021/12/26 04:08:07;;;;;;;11.15;2.95;;;;;;;;;;5011410;28;20129;-79
2021/12/26 04:10:34;;;;;;;9.35;3.42;;;;;;;;;;4983321;28;20060;-79
2021/12/26 04:13:03;;;;;;;13.80;2.83;;;;;;;;;;4994484;28;20571;-79
2021/12/26 04:15:31;;;;;;;10.27;3.58;;;;;;;;;;5010778;28;20081;-79
2021/12/26 04:17:59;;;;;;;6.15;3.13;;;;;;;;;;4984068;28;20042;-79
2021/12/26 04:20:28;;;;;;;10.23;3.00;;;;;;;;;;4982272;28;20128;-79
2021/12/26 04:22:56;;;;;;;12.27;3.40;;;;;;;;;;4994379;28;20169;-77
2021/12/26 04:25:23;;;;;;;9.98;4.22;;;;;;;;;;5010277;28;20137;-78
2021/12/26 04:27:50;;;;;;;11.45;3.67;;;;;;;;;;4990534;28;20133;-78
2021/12/26 04:30:19;;;;;;;5.72;2.63;;;;;;;;;;4981833;28;20057;-78
2021/12/26 04:32:46;;;;;;;13.35;3.22;;;;;;;;;;4990259;28;20054;-78
2021/12/26 04:35:14;;;;;;;8.57;3.30;;;;;;;;;;4987882;28;20613;-78
2021/12/26 04:37:41;;;;;;;20.73;3.10;;;;;;;;;;4993476;28;20136;-79
2021/12/26 04:40:13;;;;;;;11.32;2.97;;;;;;;;;;4985297;28;20049;-78
2021/12/26 04:42:42;;;;;;;5.90;3.05;;;;;;;;;;4992054;28;20681;-79
2021/12/26 04:45:12;;;;;;;6.15;2.70;;;;;;;;;;4997247;28;20077;-79
2021/12/26 04:47:40;;;;;;;6.47;3.45;;;;;;;;;;5008695;28;20184;-79
2021/12/26 04:50:11;;;;;;;6.97;2.95;;;;;;;;;;5007150;28;20046;-78
2021/12/26 04:52:41;;;;;;;5.13;2.90;;;;;;;;;;4993683;28;20153;-78
2021/12/26 04:55:08;;;;;;;12.82;3.30;;;;;;;;;;4991690;28;20056;-78
2021/12/26 04:57:37;;;;;;;7.45;3.33;;;;;;;;;;5009397;28;20581;-78
2021/12/26 05:00:06;;;;;;;11.73;3.40;;;;;;;;;;5006537;28;20084;-78
2021/12/26 05:02:35;;;;;;;23.85;3.42;;;;;;;;;;4992667;28;20052;-78
2021/12/26 05:05:04;;;;;;;9.20;3.20;;;;;;;;;;5020204;22;20554;-79
2021/12/26 05:07:33;;;;;;;8.00;3.13;;;;;;;;;;4982281;28;20041;-79
2021/12/26 05:10:00;;;;;;;8.50;3.72;;;;;;;;;;4986741;28;20136;-78
2021/12/26 05:12:27;;;;;;;6.75;3.53;;;;;;;;;;4997460;28;20455;-79
2021/12/26 05:14:54;;;;;;;8.40;3.38;;;;;;;;;;5002476;28;20141;-79
2021/12/26 05:17:24;;;;;;;6.00;2.60;;;;;;;;;;4985534;28;20065;-79
2021/12/26 05:19:51;;;;;;;6.57;2.83;;;;;;;;;;5001924;28;20129;-78
2021/12/26 05:22:20;;;;;;;6.82;3.60;;;;;;;;;;4992112;28;20133;-78
2021/12/26 05:24:48;;;;;;;9.30;2.55;;;;;;;;;;5009870;28;20046;-78
2021/12/26 05:27:16;;;;;;;8.73;3.00;;;;;;;;;;4989532;28;20057;-78
2021/12/26 05:29:43;;;;;;;7.75;3.15;;;;;;;;;;5016522;28;20648;-78
2021/12/26 05:32:11;;;;;;;10.68;4.22;;;;;;;;;;4991859;28;20533;-78
2021/12/26 05:34:39;;;;;;;8.68;4.18;;;;;;;;;;4987611;28;20137;-78
2021/12/26 05:37:06;;;;;;;8.38;3.20;;;;;;;;;;5008592;28;20100;-78
2021/12/26 05:39:33;;;;;;;11.20;3.05;;;;;;;;;;4991384;28;20145;-77
2021/12/26 05:42:00;;;;;;;18.73;3.90;;;;;;;;;;4991535;28;20406;-78
2021/12/26 05:44:27;;;;;;;10.18;3.97;;;;;;;;;;4989207;28;20455;-78
2021/12/26 05:46:54;;;;;;;5.50;3.00;;;;;;;;;;4991355;28;20157;-78
2021/12/26 05:49:22;;;;;;;11.77;3.72;;;;;;;;;;5008729;28;20160;-78
2021/12/26 05:51:49;;;;;;;9.32;3.67;;;;;;;;;;5010340;28;20100;-78
2021/12/26 05:54:16;;;;;;;9.20;4.28;;;;;;;;;;4989621;28;20057;-78
2021/12/26 05:56:44;;;;;;;12.02;3.25;;;;;;;;;;4982674;28;20133;-78
2021/12/26 05:59:11;;;;;;;15.07;5.18;;;;;;;;;;5005243;28;20124;-79
2021/12/26 06:01:38;;;;;;;15.60;5.13;;;;;;;;;;4986922;28;20132;-78
2021/12/26 06:04:06;;;;;;;13.45;4.95;;;;;;;;;;5001807;28;20124;-78
2021/12/26 06:06:33;;;;;;;10.00;4.45;;;;;;;;;;4989900;28;20077;-78
2021/12/26 06:09:00;;;;;;;9.55;4.40;;;;;;;;;;5003572;28;20129;-78
2021/12/26 06:11:28;;;;;;;15.50;4.10;;;;;;;;;;4986061;28;20161;-78
2021/12/26 06:13:55;;;;;;;12.68;4.10;;;;;;;;;;4988656;28;20161;-78
2021/12/26 06:16:22;;;;;;;6.57;3.85;;;;;;;;;;5004158;28;20466;-78
2021/12/26 06:18:49;;;;;;;7.85;2.92;;;;;;;;;;4991037;28;20081;-78
2021/12/26 06:21:16;;;;;;;9.50;3.35;;;;;;;;;;4989967;28;20463;-78
2021/12/26 06:23:50;;;;;;;4.35;3.03;;;;;;;;;;4990635;28;20497;-78
2021/12/26 06:26:18;;;;;;;5.13;2.80;;;;;;;;;;4991195;28;20141;-77
2021/12/26 06:28:46;;;;;;;9.32;4.13;;;;;;;;;;5001624;28;20090;-78
2021/12/26 06:31:13;;;;;;;10.80;3.60;;;;;;;;;;4991570;28;20124;-78
2021/12/26 06:33:43;;;;;;;6.15;3.05;;;;;;;;;;5006812;28;20054;-78
2021/12/26 06:39:13;;;;;;;11.50;3.30;;;;;;;;;;4963200;28;20083;-80
2021/12/26 06:41:40;;;;;;;9.48;3.15;;;;;;;;;;4982041;28;20077;-80
2021/12/26 06:44:08;;;;;;;7.22;3.42;;;;;;;;;;4970384;28;20492;-80
2021/12/26 06:46:36;;;;;;;11.27;3.65;;;;;;;;;;4952608;28;20408;-80
2021/12/26 06:49:04;;;;;;;8.85;3.13;;;;;;;;;;4960850;28;20055;-79
2021/12/26 06:51:32;;;;;;;7.38;3.70;;;;;;;;;;4954208;28;20109;-80
2021/12/26 06:53:59;;;;;;;7.65;3.45;;;;;;;;;;4946266;28;20842;-80
2021/12/26 06:56:26;;;;;;;6.45;2.72;;;;;;;;;;4955857;28;20054;-79
2021/12/26 06:58:53;;;;;;;6.95;3.53;;;;;;;;;;4964021;28;20135;-80
2021/12/26 07:01:21;;;;;;;7.95;3.65;;;;;;;;;;4970124;28;20139;-79
2021/12/26 07:03:48;;;;;;;6.10;3.00;;;;;;;;;;4967741;28;20051;-80
2021/12/26 07:06:18;;;;;;;4.65;2.75;;;;;;;;;;4964343;28;20046;-80
2021/12/26 07:08:45;;;;;;;8.70;3.15;;;;;;;;;;4969408;28;20142;-80
2021/12/26 07:11:12;;;;;;;10.60;3.88;;;;;;;;;;4971073;28;20126;-79
2021/12/26 07:13:39;;;;;;;8.20;3.58;;;;;;;;;;4956677;28;20090;-80
2021/12/26 07:16:06;;;;;;;7.00;2.78;;;;;;;;;;4957114;28;20207;-79
2021/12/26 07:18:34;;;;;;;8.63;3.70;;;;;;;;;;4975107;28;20047;-79
2021/12/26 07:21:01;;;;;;;6.38;3.38;;;;;;;;;;4974363;28;20116;-79
2021/12/26 07:23:28;;;;;;;6.03;2.97;;;;;;;;;;4956807;28;20129;-80
2021/12/26 07:25:55;;;;;;;11.10;3.85;;;;;;;;;;4957977;28;20522;-80
2021/12/26 07:28:29;;;;;;;8.98;2.92;;;;;;;;;;4976682;28;20134;-80
2021/12/26 07:30:57;;;;;;;8.68;3.63;;;;;;;;;;4973396;28;20054;-80
2021/12/26 07:33:25;;;;;;;10.07;4.10;;;;;;;;;;4961455;28;20137;-80
2021/12/26 07:35:54;;;;;;;11.02;3.97;;;;;;;;;;4957091;28;20500;-80
2021/12/26 07:38:21;;;;;;;6.93;3.35;;;;;;;;;;4957519;28;20174;-79
2021/12/26 07:40:49;;;;;;;11.05;5.13;;;;;;;;;;4957621;28;20046;-80
2021/12/26 07:43:16;;;;;;;35.22;10.95;;;;;;;;;;4968068;28;20085;-80
2021/12/26 07:45:43;;;;;;;32.13;11.52;;;;;;;;;;4957356;28;20083;-80
2021/12/26 07:48:10;;;;;;;23.52;7.07;;;;;;;;;;4975108;28;20077;-80
2021/12/26 07:50:37;;;;;;;15.35;7.00;;;;;;;;;;4973116;28;20055;-82
2021/12/26 07:53:09;;;;;;;20.05;7.95;;;;;;;;;;4974004;28;20093;-81
2021/12/26 07:55:42;;;;;;;31.98;8.98;;;;;;;;;;4953844;28;20357;-81
2021/12/26 07:58:13;;;;;;;17.23;5.85;;;;;;;;;;4970727;28;20126;-81
2021/12/26 08:00:41;;;;;;;16.35;6.38;;;;;;;;;;4963353;28;20154;-79
2021/12/26 08:03:10;;;;;;;13.32;5.30;;;;;;;;;;4952171;28;20059;-78
2021/12/26 08:05:38;;;;;;;16.83;5.18;;;;;;;;;;4967295;28;20169;-78
2021/12/26 08:08:06;;;;;;;11.85;4.35;;;;;;;;;;4955599;28;20082;-78
2021/12/26 08:10:34;;;;;;;17.70;4.45;;;;;;;;;;4976818;28;20134;-79
2021/12/26 08:13:04;;;;;;;20.17;4.28;;;;;;;;;;4954121;28;20050;-78
2021/12/26 08:15:33;;;;;;;22.92;7.03;;;;;;;;;;4971304;28;20089;-78
2021/12/26 08:18:02;;;;;;;22.13;8.95;;;;;;;;;;4971167;28;20125;-82
2021/12/26 08:20:29;;;;;;;32.17;10.65;;;;;;;;;;4969283;28;20106;-82
2021/12/26 08:22:58;;;;;;;17.42;7.00;;;;;;;;;;4966269;28;20078;-82
2021/12/26 08:25:28;;;;;;;30.20;8.07;;;;;;;;;;4952200;28;20058;-82
2021/12/26 08:27:57;;;;;;;20.20;9.05;;;;;;;;;;4951808;28;20920;-79
2021/12/26 08:30:30;;;;;;;23.83;9.13;;;;;;;;;;4957305;28;20106;-79
2021/12/26 08:33:04;;;;;;;19.65;8.57;;;;;;;;;;4968312;28;20134;-78
2021/12/26 08:35:34;;;;;;;34.65;11.07;;;;;;;;;;4970171;28;20476;-80
2021/12/26 08:38:04;;;;;;;38.55;12.40;;;;;;;;;;4951636;28;20078;-81
2021/12/26 08:40:34;;;;;;;42.35;13.50;;;;;;;;;;4967556;28;20138;-79
2021/12/26 08:43:03;;;;;;;25.63;8.77;;;;;;;;;;4952477;28;20078;-83
2021/12/26 08:45:30;;;;;;;62.80;19.35;;;;;;;;;;4967276;28;20326;-82
2021/12/26 08:48:01;;;;;;;63.78;19.88;;;;;;;;;;4974731;28;20082;-83
2021/12/26 08:50:28;;;;;;;51.50;18.23;;;;;;;;;;4945258;28;20051;-83
2021/12/26 08:52:56;;;;;;;46.58;14.90;;;;;;;;;;4973965;28;20062;-83
2021/12/26 08:55:24;;;;;;;36.22;14.10;;;;;;;;;;4966625;28;20138;-83
2021/12/26 08:57:51;;;;;;;49.60;18.52;;;;;;;;;;4968184;28;20086;-85
2021/12/26 09:00:19;;;;;;;41.30;15.75;;;;;;;;;;4964568;28;20134;-80
2021/12/26 09:02:46;;;;;;;48.92;17.60;;;;;;;;;;4970020;28;20129;-79
2021/12/26 09:05:14;;;;;;;47.33;17.50;;;;;;;;;;4947354;28;20141;-78
2021/12/26 09:07:41;;;;;;;39.17;14.40;;;;;;;;;;4983150;28;20138;-79
2021/12/26 09:10:10;;;;;;;35.95;13.35;;;;;;;;;;4946632;28;20830;-78
2021/12/26 09:12:37;;;;;;;26.40;7.53;;;;;;;;;;4955978;28;20078;-79
2021/12/26 09:15:06;;;;;;;22.02;9.50;;;;;;;;;;4972427;28;20047;-80
2021/12/26 09:17:48;;;;;;;44.38;16.58;;;;;;;;;;4959995;28;20054;-81
2021/12/26 09:20:21;;;;;;;41.88;17.27;;;;;;;;;;4950122;28;20069;-80
2021/12/26 09:22:48;;;;;;;22.13;10.10;;;;;;;;;;4964515;28;20102;-78
2021/12/26 09:25:15;;;;;;;37.58;14.48;;;;;;;;;;4963679;28;20089;-80
2021/12/26 09:27:42;;;;;;;28.55;12.00;;;;;;;;;;4953344;28;20082;-77
2021/12/26 09:30:11;;;;;;;33.75;12.68;;;;;;;;;;4964996;28;20519;-78
2021/12/26 09:32:39;;;;;;;27.85;12.15;;;;;;;;;;4968566;28;20050;-79
2021/12/26 09:35:07;;;;;;;27.40;11.38;;;;;;;;;;4949941;28;20475;-80
2021/12/26 09:37:34;;;;;;;31.48;17.52;;;;;;;;;;4949622;28;20157;-81
2021/12/26 09:40:04;;;;;;;29.02;14.02;;;;;;;;;;4949645;28;20130;-81
2021/12/26 09:42:33;;;;;;;21.48;10.02;;;;;;;;;;4961190;23;20094;-80
2021/12/26 09:45:02;;;;;;;15.45;6.22;;;;;;;;;;4966398;28;20129;-80
2021/12/26 09:47:29;;;;;;;19.10;10.20;;;;;;;;;;4971350;28;20066;-83
2021/12/26 09:49:57;;;;;;;34.85;11.90;;;;;;;;;;4974652;28;20078;-78
2021/12/26 09:52:24;;;;;;;42.75;15.93;;;;;;;;;;4979522;28;20073;-83
2021/12/26 09:54:51;;;;;;;39.17;13.98;;;;;;;;;;4950516;28;20146;-77
2021/12/26 09:57:19;;;;;;;35.45;12.98;;;;;;;;;;4964945;28;20085;-78
2021/12/26 09:59:48;;;;;;;16.75;7.55;;;;;;;;;;4950896;28;20677;-81
2021/12/26 10:02:18;;;;;;;20.75;8.00;;;;;;;;;;4945325;28;20053;-78
2021/12/26 10:04:48;;;;;;;25.15;7.60;;;;;;;;;;4957667;28;20499;-79
2021/12/26 10:07:23;;;;;;;21.58;8.45;;;;;;;;;;4954461;28;20530;-79
2021/12/26 10:09:51;;;;;;;29.83;10.82;;;;;;;;;;4966263;28;20496;-78
2021/12/26 10:12:20;;;;;;;35.35;9.95;;;;;;;;;;4965090;28;20153;-78
2021/12/26 10:14:49;;;;;;;27.42;10.68;;;;;;;;;;4960895;28;20113;-79
2021/12/26 10:17:23;;;;;;;33.17;12.82;;;;;;;;;;4965247;28;20043;-78
2021/12/26 10:19:53;;;;;;;55.35;18.73;;;;;;;;;;4963238;28;20092;-78
2021/12/26 10:22:29;;;;;;;36.03;13.82;;;;;;;;;;4965019;28;20145;-78
2021/12/26 10:25:00;;;;;;;30.95;12.23;;;;;;;;;;4976607;28;20072;-84
2021/12/26 10:27:30;;;;;;;24.88;10.88;;;;;;;;;;4990506;28;20548;-83
2021/12/26 10:30:07;;;;;;;29.38;10.73;;;;;;;;;;4967601;28;20420;-85
2021/12/26 10:32:41;;;;;;;23.15;10.02;;;;;;;;;;4965786;28;20055;-84
2021/12/26 10:35:11;;;;;;;88.38;13.65;;;;;;;;;;4965520;28;20141;-83
2021/12/26 10:37:46;;;;;;;24.55;9.45;;;;;;;;;;4963352;28;20994;-86
2021/12/26 10:40:15;;;;;;;47.85;10.95;;;;;;;;;;4954011;28;20664;-86
2021/12/26 10:42:46;;;;;;;18.73;7.53;;;;;;;;;;4971887;28;20078;-87
2021/12/26 10:45:20;;;;;;;27.65;11.02;;;;;;;;;;4970887;28;20662;-89
2021/12/26 10:47:52;;;;;;;29.02;11.15;;;;;;;;;;4958360;28;20051;-86
2021/12/26 10:50:20;;;;;;;26.55;12.02;;;;;;;;;;4974891;28;20582;-86
2021/12/26 10:52:53;;;;;;;32.38;11.70;;;;;;;;;;4957487;28;20157;-86
2021/12/26 10:55:33;;;;;;;30.92;11.88;;;;;;;;;;4972680;28;20109;-85
2021/12/26 10:58:03;;;;;;;23.40;9.40;;;;;;;;;;4976935;28;20905;-86
2021/12/26 11:03:13;;;;;;;22.63;9.30;;;;;;;;;;4988318;28;20073;-86
2021/12/26 11:05:43;;;;;;;24.33;8.88;;;;;;;;;;4991050;28;20080;-85
2021/12/26 11:08:14;;;;;;;25.92;10.80;;;;;;;;;;4976742;28;20097;-89
2021/12/26 11:10:43;;;;;;;27.42;9.98;;;;;;;;;;4979135;28;20073;-87
2021/12/26 11:13:40;;;;;;;30.70;11.82;;;;;;;;;;4985596;28;20809;-87
2021/12/26 11:16:08;;;;;;;24.88;10.52;;;;;;;;;;4976147;28;20150;-81
2021/12/26 11:18:37;;;;;;;24.48;10.30;;;;;;;;;;4975412;28;20566;-81
2021/12/26 11:21:06;;;;;;;26.00;9.13;;;;;;;;;;4976431;28;20046;-83
2021/12/26 11:23:35;;;;;;;24.05;13.23;;;;;;;;;;4990971;28;20984;-81
2021/12/26 11:26:09;;;;;;;23.98;12.05;;;;;;;;;;4968378;28;20080;-81
2021/12/26 11:28:37;;;;;;;23.95;11.00;;;;;;;;;;4972577;28;20122;-83
2021/12/26 11:31:07;;;;;;;25.52;12.27;;;;;;;;;;4968464;28;20526;-81
2021/12/26 11:33:35;;;;;;;32.83;14.68;;;;;;;;;;4972866;28;20047;-81
2021/12/26 11:36:03;;;;;;;37.95;15.52;;;;;;;;;;4974821;28;20802;-81
2021/12/26 11:38:31;;;;;;;42.22;18.38;;;;;;;;;;4990719;28;20092;-80
2021/12/26 11:41:00;;;;;;;37.67;17.23;;;;;;;;;;4990286;28;20622;-80
2021/12/26 11:43:27;;;;;;;30.67;15.35;;;;;;;;;;4980251;28;20100;-80
2021/12/26 11:45:54;;;;;;;26.63;10.77;;;;;;;;;;5005946;28;20088;-80
2021/12/26 11:48:43;;;;;;;21.17;11.68;;;;;;;;;;4992531;28;20050;-81
2021/12/26 11:51:29;;;;;;;19.92;10.50;;;;;;;;;;4968088;28;20057;-81
2021/12/26 11:54:16;;;;;;;22.38;9.93;;;;;;;;;;4990232;28;20085;-80
2021/12/26 11:56:50;;;;;;;25.00;13.18;;;;;;;;;;4973191;28;20053;-80
2021/12/26 11:59:39;;;;;;;26.92;14.07;;;;;;;;;;4995570;28;20080;-80
2021/12/26 12:02:06;;;;;;;34.22;15.68;;;;;;;;;;4969805;28;20665;-80
2021/12/26 12:04:35;;;;;;;25.05;13.27;;;;;;;;;;4960632;28;20042;-80
2021/12/26 12:07:05;;;;;;;25.02;13.13;;;;;;;;;;4975479;28;20559;-80
2021/12/26 12:09:33;;;;;;;23.55;12.13;;;;;;;;;;4964552;28;20146;-80
2021/12/26 12:12:01;;;;;;;20.08;9.70;;;;;;;;;;4977561;28;20179;-80
2021/12/26 12:14:47;;;;;;;17.90;9.43;;;;;;;;;;4978189;28;20073;-81
2021/12/26 12:17:19;;;;;;;19.30;9.65;;;;;;;;;;4991423;28;20047;-80
2021/12/26 12:20:13;;;;;;;25.92;11.32;;;;;;;;;;4972348;28;20051;-80
2021/12/26 12:22:59;;;;;;;21.58;10.55;;;;;;;;;;4953931;28;20082;-80
2021/12/26 12:25:36;;;;;;;21.75;9.82;;;;;;;;;;4973070;28;20049;-80
2021/12/26 12:28:09;;;;;;;23.30;9.98;;;;;;;;;;4992989;28;20652;-80
2021/12/26 12:30:37;;;;;;;18.63;9.18;;;;;;;;;;4956428;28;20054;-80
2021/12/26 12:33:25;;;;;;;21.17;9.43;;;;;;;;;;4956032;28;20129;-81
2021/12/26 12:35:55;;;;;;;25.17;11.52;;;;;;;;;;4971340;28;20074;-80
2021/12/26 12:38:29;;;;;;;69.80;25.85;;;;;;;;;;4974124;28;20051;-80
2021/12/26 12:41:32;;;;;;;78.30;33.17;;;;;;;;;;4990768;28;20046;-80
2021/12/26 12:44:02;;;;;;;31.13;12.98;;;;;;;;;;4978570;28;20092;-80
2021/12/26 12:46:29;;;;;;;20.27;10.32;;;;;;;;;;5006908;28;20137;-80
2021/12/26 12:49:06;;;;;;;21.35;9.95;;;;;;;;;;4957706;28;20051;-80
2021/12/26 12:51:35;;;;;;;34.08;14.73;;;;;;;;;;4981393;28;20167;-81
2021/12/26 12:54:04;;;;;;;42.03;14.95;;;;;;;;;;4989913;28;20153;-80
2021/12/26 12:56:33;;;;;;;35.67;16.17;;;;;;;;;;4960835;28;20096;-80
2021/12/26 12:59:14;;;;;;;46.45;17.17;;;;;;;;;;4977465;28;20046;-81
2021/12/26 13:01:42;;;;;;;46.90;18.55;;;;;;;;;;4992141;28;20396;-81
2021/12/26 13:04:10;;;;;;;40.42;16.30;;;;;;;;;;4974110;28;20499;-81
2021/12/26 13:06:50;;;;;;;39.88;17.85;;;;;;;;;;4971423;28;20048;-81
2021/12/26 13:09:18;;;;;;;39.78;16.17;;;;;;;;;;4984547;28;20511;-81
2021/12/26 13:11:45;;;;;;;50.30;18.13;;;;;;;;;;4956942;28;20054;-82
2021/12/26 13:14:13;;;;;;;31.40;13.63;;;;;;;;;;4974427;28;20481;-82
2021/12/26 13:16:40;;;;;;;27.20;8.55;;;;;;;;;;5004242;28;20652;-82
2021/12/26 13:19:09;;;;;;;14.15;6.45;;;;;;;;;;4954917;28;20089;-82
2021/12/26 13:21:37;;;;;;;15.55;7.60;;;;;;;;;;4955069;28;20051;-82
2021/12/26 13:24:07;;;;;;;16.98;7.47;;;;;;;;;;4981792;28;20046;-81
2021/12/26 13:26:34;;;;;;;22.73;8.48;;;;;;;;;;4995625;28;20085;-81
2021/12/26 13:29:01;;;;;;;24.58;10.15;;;;;;;;;;5002353;28;20088;-81
2021/12/26 13:31:28;;;;;;;38.63;15.88;;;;;;;;;;5010106;28;20141;-81
2021/12/26 13:33:57;;;;;;;30.15;11.07;;;;;;;;;;4995242;28;20062;-81
2021/12/26 13:36:30;;;;;;;25.73;12.18;;;;;;;;;;4972769;28;20105;-81
2021/12/26 13:38:58;;;;;;;38.25;13.52;;;;;;;;;;4960869;28;20084;-81
2021/12/26 13:41:27;;;;;;;27.63;10.30;;;;;;;;;;4974125;28;20058;-81
2021/12/26 13:43:56;;;;;;;25.88;10.77;;;;;;;;;;4987294;28;20119;-81
2021/12/26 13:46:24;;;;;;;45.17;18.20;;;;;;;;;;4993434;28;20087;-81
2021/12/26 13:48:55;;;;;;;48.03;18.83;;;;;;;;;;4988165;28;20390;-81
2021/12/26 13:51:25;;;;;;;58.00;21.92;;;;;;;;;;4973370;28;20523;-81
2021/12/26 13:53:54;;;;;;;46.50;16.70;;;;;;;;;;4973475;28;20561;-79
2021/12/26 13:56:21;;;;;;;44.33;17.90;;;;;;;;;;4991000;28;20462;-81
2021/12/26 13:58:49;;;;;;;52.15;19.90;;;;;;;;;;4973540;28;20197;-82
2021/12/26 14:01:16;;;;;;;50.45;18.60;;;;;;;;;;4987164;28;20074;-81
2021/12/26 14:03:51;;;;;;;39.80;16.33;;;;;;;;;;4991874;28;20081;-81
2021/12/26 14:06:22;;;;;;;39.72;15.40;;;;;;;;;;4991508;28;20138;-84
2021/12/26 14:08:58;;;;;;;38.83;14.90;;;;;;;;;;4990699;28;20074;-83
2021/12/26 14:11:28;;;;;;;33.75;11.90;;;;;;;;;;4973565;28;21533;-82
2021/12/26 14:14:06;;;;;;;36.53;15.13;;;;;;;;;;4991045;28;20082;-84
2021/12/26 14:16:49;;;;;;;43.42;15.35;;;;;;;;;;4973650;28;20062;-83
2021/12/26 14:19:26;;;;;;;26.83;11.27;;;;;;;;;;4977047;28;20137;-88
2021/12/26 14:21:55;;;;;;;23.77;9.52;;;;;;;;;;4977728;28;20053;-86
2021/12/26 14:24:25;;;;;;;15.25;6.55;;;;;;;;;;4977591;28;20077;-87
2021/12/26 14:26:53;;;;;;;18.83;8.88;;;;;;;;;;4995658;28;20081;-82
2021/12/26 14:29:22;;;;;;;21.67;9.43;;;;;;;;;;4977244;28;20462;-86
2021/12/26 14:31:54;;;;;;;14.85;6.38;;;;;;;;;;4977771;28;20058;-82
2021/12/26 14:34:35;;;;;;;20.25;8.00;;;;;;;;;;4977398;28;20053;-84
2021/12/26 14:37:04;;;;;;;34.45;11.77;;;;;;;;;;4983351;28;20054;-84
2021/12/26 14:39:35;;;;;;;16.98;7.93;;;;;;;;;;4969338;28;20061;-81
2021/12/26 14:42:09;;;;;;;16.23;6.85;;;;;;;;;;4976946;28;20096;-80
2021/12/26 14:44:44;;;;;;;23.45;12.55;;;;;;;;;;4994534;28;20077;-82
2021/12/26 14:47:19;;;;;;;26.70;11.20;;;;;;;;;;4994847;28;20137;-83
2021/12/26 14:49:53;;;;;;;24.02;10.32;;;;;;;;;;4978251;28;20399;-84
2021/12/26 14:52:21;;;;;;;28.23;14.15;;;;;;;;;;4994688;28;20054;-81
2021/12/26 14:54:50;;;;;;;27.35;13.45;;;;;;;;;;4978023;28;20066;-82
2021/12/26 14:57:27;;;;;;;28.17;11.80;;;;;;;;;;4997746;28;20054;-84